sensor_id;sensor_type;location;lat;lon;timestamp;temperature;humidity
16515;DHT22;8370;52.556;7.970;2022-08-19T00:01:39;16.80;99.90
16515;DHT22;8370;52.556;7.970;2022-08-19T00:04:11;16.80;99.90
16515;DHT22;8370;52.556;7.970;2022-08-19T00:06:39;16.80;99.90
16515;DHT22;8370;52.556;7.970;2022-08-19T00:09:06;16.80;99.90
16515;DHT22;8370;52.556;7.970;2022-08-19T00:11:33;16.80;99.90
16515;DHT22;8370;52.556;7.970;2022-08-19T00:14:01;16.80;99.90
16515;DHT22;8370;52.556;7.970;2022-08-19T00:16:27;16.80;99.90
16515;DHT22;8370;52.556;7.970;2022-08-19T00:18:54;16.70;99.90
16515;DHT22;8370;52.556;7.970;2022-08-19T00:21:21;16.80;99.90
16515;DHT22;8370;52.556;7.970;2022-08-19T00:23:46;16.70;99.90
16515;DHT22;8370;52.556;7.970;2022-08-19T00:26:12;16.70;99.90
16515;DHT22;8370;52.556;7.970;2022-08-19T00:28:38;16.60;99.90
16515;DHT22;8370;52.556;7.970;2022-08-19T00:31:05;16.50;99.90
16515;DHT22;8370;52.556;7.970;2022-08-19T00:33:32;16.50;99.90
16515;DHT22;8370;52.556;7.970;2022-08-19T00:35:58;16.50;99.90
16515;DHT22;8370;52.556;7.970;2022-08-19T00:38:24;16.40;99.90
16515;DHT22;8370;52.556;7.970;2022-08-19T00:40:49;16.40;99.90
16515;DHT22;8370;52.556;7.970;2022-08-19T00:43:20;16.40;99.90
16515;DHT22;8370;52.556;7.970;2022-08-19T00:45:47;16.40;99.90
16515;DHT22;8370;52.556;7.970;2022-08-19T00:48:13;16.40;99.90
16515;DHT22;8370;52.556;7.970;2022-08-19T00:50:40;16.40;99.90
16515;DHT22;8370;52.556;7.970;2022-08-19T00:53:09;16.40;99.90
16515;DHT22;8370;52.556;7.970;2022-08-19T00:55:36;16.40;99.90
16515;DHT22;8370;52.556;7.970;2022-08-19T00:58:06;16.40;99.90
16515;DHT22;8370;52.556;7.970;2022-08-19T01:00:33;16.40;99.90
16515;DHT22;8370;52.556;7.970;2022-08-19T01:03:08;16.40;99.90
16515;DHT22;8370;52.556;7.970;2022-08-19T01:05:35;16.30;99.90
16515;DHT22;8370;52.556;7.970;2022-08-19T01:08:02;16.10;99.90
16515;DHT22;8370;52.556;7.970;2022-08-19T01:10:31;16.00;99.90
16515;DHT22;8370;52.556;7.970;2022-08-19T01:12:59;16.00;99.90
16515;DHT22;8370;52.556;7.970;2022-08-19T01:15:31;16.00;99.90
16515;DHT22;8370;52.556;7.970;2022-08-19T01:18:00;16.10;99.90
16515;DHT22;8370;52.556;7.970;2022-08-19T01:20:26;16.00;99.90
16515;DHT22;8370;52.556;7.970;2022-08-19T01:22:56;16.00;99.90
16515;DHT22;8370;52.556;7.970;2022-08-19T01:25:28;16.00;99.90
16515;DHT22;8370;52.556;7.970;2022-08-19T01:27:55;16.00;99.90
16515;DHT22;8370;52.556;7.970;2022-08-19T01:30:30;16.00;99.90
16515;DHT22;8370;52.556;7.970;2022-08-19T01:32:57;15.90;99.90
16515;DHT22;8370;52.556;7.970;2022-08-19T01:35:24;15.80;99.90
16515;DHT22;8370;52.556;7.970;2022-08-19T01:37:54;15.80;99.90
16515;DHT22;8370;52.556;7.970;2022-08-19T01:40:22;15.80;99.90
16515;DHT22;8370;52.556;7.970;2022-08-19T01:42:49;15.80;99.90
16515;DHT22;8370;52.556;7.970;2022-08-19T01:45:15;15.80;99.90
16515;DHT22;8370;52.556;7.970;2022-08-19T01:47:41;15.80;99.90
16515;DHT22;8370;52.556;7.970;2022-08-19T01:50:09;15.80;99.90
16515;DHT22;8370;52.556;7.970;2022-08-19T01:52:40;15.80;99.90
16515;DHT22;8370;52.556;7.970;2022-08-19T01:55:09;15.90;99.90
16515;DHT22;8370;52.556;7.970;2022-08-19T01:57:35;15.80;99.90
16515;DHT22;8370;52.556;7.970;2022-08-19T02:00:03;15.80;99.90
16515;DHT22;8370;52.556;7.970;2022-08-19T02:02:30;15.80;99.90
16515;DHT22;8370;52.556;7.970;2022-08-19T02:04:56;15.80;99.90
16515;DHT22;8370;52.556;7.970;2022-08-19T02:07:21;15.80;99.90
16515;DHT22;8370;52.556;7.970;2022-08-19T02:09:47;15.70;99.90
16515;DHT22;8370;52.556;7.970;2022-08-19T02:12:14;15.70;99.90
16515;DHT22;8370;52.556;7.970;2022-08-19T02:14:40;15.60;99.90
16515;DHT22;8370;52.556;7.970;2022-08-19T02:17:05;15.60;99.90
16515;DHT22;8370;52.556;7.970;2022-08-19T02:19:31;15.60;99.90
16515;DHT22;8370;52.556;7.970;2022-08-19T02:21:58;15.60;99.90
16515;DHT22;8370;52.556;7.970;2022-08-19T02:24:25;15.50;99.90
16515;DHT22;8370;52.556;7.970;2022-08-19T02:26:50;15.50;99.90
16515;DHT22;8370;52.556;7.970;2022-08-19T02:29:16;15.40;99.90
16515;DHT22;8370;52.556;7.970;2022-08-19T02:31:42;15.40;99.90
16515;DHT22;8370;52.556;7.970;2022-08-19T02:34:08;15.50;99.90
16515;DHT22;8370;52.556;7.970;2022-08-19T02:36:33;15.50;99.90
16515;DHT22;8370;52.556;7.970;2022-08-19T02:38:59;15.40;99.90
16515;DHT22;8370;52.556;7.970;2022-08-19T02:41:31;15.40;99.90
16515;DHT22;8370;52.556;7.970;2022-08-19T02:43:59;15.30;99.90
16515;DHT22;8370;52.556;7.970;2022-08-19T02:46:28;15.30;99.90
16515;DHT22;8370;52.556;7.970;2022-08-19T02:48:56;15.30;99.90
16515;DHT22;8370;52.556;7.970;2022-08-19T02:51:25;15.30;99.90
16515;DHT22;8370;52.556;7.970;2022-08-19T02:53:51;15.30;99.90
16515;DHT22;8370;52.556;7.970;2022-08-19T02:56:17;15.30;99.90
16515;DHT22;8370;52.556;7.970;2022-08-19T02:58:43;15.30;99.90
16515;DHT22;8370;52.556;7.970;2022-08-19T03:01:09;15.30;99.90
16515;DHT22;8370;52.556;7.970;2022-08-19T03:03:38;15.30;99.90
16515;DHT22;8370;52.556;7.970;2022-08-19T03:06:06;15.30;99.90
16515;DHT22;8370;52.556;7.970;2022-08-19T03:08:32;15.30;99.90
16515;DHT22;8370;52.556;7.970;2022-08-19T03:10:57;15.30;99.90
16515;DHT22;8370;52.556;7.970;2022-08-19T03:13:23;15.40;99.90
16515;DHT22;8370;52.556;7.970;2022-08-19T03:15:49;15.40;99.90
16515;DHT22;8370;52.556;7.970;2022-08-19T03:18:15;15.40;99.90
16515;DHT22;8370;52.556;7.970;2022-08-19T03:20:58;15.40;99.90
16515;DHT22;8370;52.556;7.970;2022-08-19T03:23:24;15.40;99.90
16515;DHT22;8370;52.556;7.970;2022-08-19T03:25:51;15.40;99.90
16515;DHT22;8370;52.556;7.970;2022-08-19T03:28:17;15.40;99.90
16515;DHT22;8370;52.556;7.970;2022-08-19T03:30:58;15.40;99.90
16515;DHT22;8370;52.556;7.970;2022-08-19T03:33:25;15.40;99.90
16515;DHT22;8370;52.556;7.970;2022-08-19T03:36:22;15.40;99.90
16515;DHT22;8370;52.556;7.970;2022-08-19T03:38:50;15.40;99.90
16515;DHT22;8370;52.556;7.970;2022-08-19T03:41:19;15.30;99.90
16515;DHT22;8370;52.556;7.970;2022-08-19T03:43:46;15.30;99.90
16515;DHT22;8370;52.556;7.970;2022-08-19T03:46:18;15.30;99.90
16515;DHT22;8370;52.556;7.970;2022-08-19T03:48:46;15.30;99.90
16515;DHT22;8370;52.556;7.970;2022-08-19T03:51:21;15.30;99.90
16515;DHT22;8370;52.556;7.970;2022-08-19T03:53:47;15.20;99.90
16515;DHT22;8370;52.556;7.970;2022-08-19T03:56:13;15.10;99.90
16515;DHT22;8370;52.556;7.970;2022-08-19T03:58:39;15.10;99.90
16515;DHT22;8370;52.556;7.970;2022-08-19T04:01:11;15.10;99.90
16515;DHT22;8370;52.556;7.970;2022-08-19T04:03:38;15.00;99.90
16515;DHT22;8370;52.556;7.970;2022-08-19T04:06:12;15.10;99.90
16515;DHT22;8370;52.556;7.970;2022-08-19T04:08:40;15.10;99.90
16515;DHT22;8370;52.556;7.970;2022-08-19T04:11:08;15.10;99.90
16515;DHT22;8370;52.556;7.970;2022-08-19T04:13:34;15.00;99.90
16515;DHT22;8370;52.556;7.970;2022-08-19T04:15:59;15.00;99.90
16515;DHT22;8370;52.556;7.970;2022-08-19T04:18:25;15.00;99.90
16515;DHT22;8370;52.556;7.970;2022-08-19T04:20:51;15.00;99.90
16515;DHT22;8370;52.556;7.970;2022-08-19T04:23:17;15.00;99.90
16515;DHT22;8370;52.556;7.970;2022-08-19T04:25:43;14.90;99.90
16515;DHT22;8370;52.556;7.970;2022-08-19T04:28:11;14.90;99.90
16515;DHT22;8370;52.556;7.970;2022-08-19T04:30:38;14.80;99.90
16515;DHT22;8370;52.556;7.970;2022-08-19T04:33:04;14.80;99.90
16515;DHT22;8370;52.556;7.970;2022-08-19T04:35:36;14.80;99.90
16515;DHT22;8370;52.556;7.970;2022-08-19T04:38:02;14.80;99.90
16515;DHT22;8370;52.556;7.970;2022-08-19T04:40:28;14.80;99.90
16515;DHT22;8370;52.556;7.970;2022-08-19T04:43:11;14.80;99.90
16515;DHT22;8370;52.556;7.970;2022-08-19T04:45:39;14.70;99.90
16515;DHT22;8370;52.556;7.970;2022-08-19T04:48:05;14.80;99.90
16515;DHT22;8370;52.556;7.970;2022-08-19T04:50:31;14.80;99.90
16515;DHT22;8370;52.556;7.970;2022-08-19T04:52:56;14.90;99.90
16515;DHT22;8370;52.556;7.970;2022-08-19T04:55:22;14.90;99.90
16515;DHT22;8370;52.556;7.970;2022-08-19T04:57:50;14.90;99.90
16515;DHT22;8370;52.556;7.970;2022-08-19T05:00:16;14.90;99.90
16515;DHT22;8370;52.556;7.970;2022-08-19T05:02:42;14.90;99.90
16515;DHT22;8370;52.556;7.970;2022-08-19T05:05:08;14.80;99.90
16515;DHT22;8370;52.556;7.970;2022-08-19T05:07:34;14.80;99.90
16515;DHT22;8370;52.556;7.970;2022-08-19T05:10:01;14.70;99.90
16515;DHT22;8370;52.556;7.970;2022-08-19T05:12:27;14.70;99.90
16515;DHT22;8370;52.556;7.970;2022-08-19T05:14:53;14.80;99.90
16515;DHT22;8370;52.556;7.970;2022-08-19T05:17:19;14.80;99.90
16515;DHT22;8370;52.556;7.970;2022-08-19T05:19:45;14.80;99.90
16515;DHT22;8370;52.556;7.970;2022-08-19T05:22:29;14.90;99.90
16515;DHT22;8370;52.556;7.970;2022-08-19T05:24:58;15.00;99.90
16515;DHT22;8370;52.556;7.970;2022-08-19T05:27:24;15.10;99.90
16515;DHT22;8370;52.556;7.970;2022-08-19T05:29:49;15.20;99.90
16515;DHT22;8370;52.556;7.970;2022-08-19T05:32:15;15.20;99.90
16515;DHT22;8370;52.556;7.970;2022-08-19T05:34:41;15.20;99.90
16515;DHT22;8370;52.556;7.970;2022-08-19T05:37:08;15.30;99.90
16515;DHT22;8370;52.556;7.970;2022-08-19T05:39:35;15.30;99.90
16515;DHT22;8370;52.556;7.970;2022-08-19T05:42:04;15.30;99.90
16515;DHT22;8370;52.556;7.970;2022-08-19T05:44:33;15.30;99.90
16515;DHT22;8370;52.556;7.970;2022-08-19T05:47:00;15.40;99.90
16515;DHT22;8370;52.556;7.970;2022-08-19T05:49:27;15.50;99.90
16515;DHT22;8370;52.556;7.970;2022-08-19T05:51:54;15.50;99.90
16515;DHT22;8370;52.556;7.970;2022-08-19T05:54:21;15.70;99.90
16515;DHT22;8370;52.556;7.970;2022-08-19T05:56:49;15.80;99.90
16515;DHT22;8370;52.556;7.970;2022-08-19T05:59:16;15.90;99.90
16515;DHT22;8370;52.556;7.970;2022-08-19T06:01:44;16.00;99.90
16515;DHT22;8370;52.556;7.970;2022-08-19T06:04:12;16.10;99.90
16515;DHT22;8370;52.556;7.970;2022-08-19T06:06:39;16.10;99.90
16515;DHT22;8370;52.556;7.970;2022-08-19T06:09:06;16.20;99.90
16515;DHT22;8370;52.556;7.970;2022-08-19T06:11:37;16.30;99.90
16515;DHT22;8370;52.556;7.970;2022-08-19T06:14:06;16.50;99.90
16515;DHT22;8370;52.556;7.970;2022-08-19T06:16:40;16.60;99.90
16515;DHT22;8370;52.556;7.970;2022-08-19T06:19:08;16.70;99.90
16515;DHT22;8370;52.556;7.970;2022-08-19T06:21:36;16.80;99.90
16515;DHT22;8370;52.556;7.970;2022-08-19T06:24:06;16.80;99.90
16515;DHT22;8370;52.556;7.970;2022-08-19T06:26:34;16.90;99.90
16515;DHT22;8370;52.556;7.970;2022-08-19T06:29:00;17.10;99.90
16515;DHT22;8370;52.556;7.970;2022-08-19T06:31:28;17.20;99.90
16515;DHT22;8370;52.556;7.970;2022-08-19T06:33:54;17.30;99.90
16515;DHT22;8370;52.556;7.970;2022-08-19T06:36:29;17.40;99.90
16515;DHT22;8370;52.556;7.970;2022-08-19T06:38:58;17.50;99.90
16515;DHT22;8370;52.556;7.970;2022-08-19T06:41:27;17.60;99.90
16515;DHT22;8370;52.556;7.970;2022-08-19T06:43:53;17.70;99.90
16515;DHT22;8370;52.556;7.970;2022-08-19T06:46:20;17.80;99.90
16515;DHT22;8370;52.556;7.970;2022-08-19T06:48:46;17.90;99.90
16515;DHT22;8370;52.556;7.970;2022-08-19T06:51:16;18.10;99.90
16515;DHT22;8370;52.556;7.970;2022-08-19T06:53:48;18.10;99.90
16515;DHT22;8370;52.556;7.970;2022-08-19T06:56:20;18.30;99.90
16515;DHT22;8370;52.556;7.970;2022-08-19T06:58:46;18.40;99.90
16515;DHT22;8370;52.556;7.970;2022-08-19T07:01:12;18.50;99.90
16515;DHT22;8370;52.556;7.970;2022-08-19T07:03:38;18.60;99.90
16515;DHT22;8370;52.556;7.970;2022-08-19T07:06:05;18.70;99.90
16515;DHT22;8370;52.556;7.970;2022-08-19T07:08:32;18.90;99.90
16515;DHT22;8370;52.556;7.970;2022-08-19T07:10:58;19.00;99.90
16515;DHT22;8370;52.556;7.970;2022-08-19T07:13:23;19.10;99.90
16515;DHT22;8370;52.556;7.970;2022-08-19T07:15:49;19.20;99.90
16515;DHT22;8370;52.556;7.970;2022-08-19T07:18:19;19.30;99.90
16515;DHT22;8370;52.556;7.970;2022-08-19T07:20:45;19.40;99.90
16515;DHT22;8370;52.556;7.970;2022-08-19T07:23:11;19.60;99.90
16515;DHT22;8370;52.556;7.970;2022-08-19T07:25:37;19.60;99.90
16515;DHT22;8370;52.556;7.970;2022-08-19T07:28:04;19.70;99.90
16515;DHT22;8370;52.556;7.970;2022-08-19T07:30:30;19.90;99.90
16515;DHT22;8370;52.556;7.970;2022-08-19T07:32:56;20.00;99.90
16515;DHT22;8370;52.556;7.970;2022-08-19T07:35:22;20.00;99.90
16515;DHT22;8370;52.556;7.970;2022-08-19T07:37:48;20.10;99.90
16515;DHT22;8370;52.556;7.970;2022-08-19T07:40:14;20.20;99.90
16515;DHT22;8370;52.556;7.970;2022-08-19T07:42:39;20.30;99.90
16515;DHT22;8370;52.556;7.970;2022-08-19T07:45:06;20.50;99.90
16515;DHT22;8370;52.556;7.970;2022-08-19T07:47:33;20.60;99.90
16515;DHT22;8370;52.556;7.970;2022-08-19T07:49:58;20.70;99.90
16515;DHT22;8370;52.556;7.970;2022-08-19T07:52:24;20.80;99.90
16515;DHT22;8370;52.556;7.970;2022-08-19T07:54:49;20.90;99.90
16515;DHT22;8370;52.556;7.970;2022-08-19T07:57:16;21.00;99.90
16515;DHT22;8370;52.556;7.970;2022-08-19T07:59:41;21.00;99.90
16515;DHT22;8370;52.556;7.970;2022-08-19T08:02:08;21.10;99.90
16515;DHT22;8370;52.556;7.970;2022-08-19T08:04:34;21.20;99.90
16515;DHT22;8370;52.556;7.970;2022-08-19T08:07:18;21.30;99.90
16515;DHT22;8370;52.556;7.970;2022-08-19T08:10:04;21.40;99.90
16515;DHT22;8370;52.556;7.970;2022-08-19T08:12:34;21.60;99.90
16515;DHT22;8370;52.556;7.970;2022-08-19T08:15:05;21.70;99.90
16515;DHT22;8370;52.556;7.970;2022-08-19T08:17:32;21.80;99.90
16515;DHT22;8370;52.556;7.970;2022-08-19T08:19:57;21.90;99.90
16515;DHT22;8370;52.556;7.970;2022-08-19T08:22:23;22.00;99.90
16515;DHT22;8370;52.556;7.970;2022-08-19T08:25:20;22.00;99.90
16515;DHT22;8370;52.556;7.970;2022-08-19T08:27:46;22.10;99.90
16515;DHT22;8370;52.556;7.970;2022-08-19T08:30:22;22.20;99.90
16515;DHT22;8370;52.556;7.970;2022-08-19T08:32:48;22.30;99.90
16515;DHT22;8370;52.556;7.970;2022-08-19T08:35:15;22.40;99.90
16515;DHT22;8370;52.556;7.970;2022-08-19T08:37:42;22.50;99.90
16515;DHT22;8370;52.556;7.970;2022-08-19T08:45:28;22.90;99.90
16515;DHT22;8370;52.556;7.970;2022-08-19T08:47:56;23.00;99.90
16515;DHT22;8370;52.556;7.970;2022-08-19T08:50:31;23.10;99.90
16515;DHT22;8370;52.556;7.970;2022-08-19T08:53:01;23.20;99.90
16515;DHT22;8370;52.556;7.970;2022-08-19T08:55:29;23.30;99.90
16515;DHT22;8370;52.556;7.970;2022-08-19T08:58:12;23.40;99.90
16515;DHT22;8370;52.556;7.970;2022-08-19T09:00:44;23.40;99.90
16515;DHT22;8370;52.556;7.970;2022-08-19T09:03:21;23.60;99.90
16515;DHT22;8370;52.556;7.970;2022-08-19T09:06:43;23.70;99.90
16515;DHT22;8370;52.556;7.970;2022-08-19T09:08:59;23.60;99.90
16515;DHT22;8370;52.556;7.970;2022-08-19T09:16:34;23.70;99.90
16515;DHT22;8370;52.556;7.970;2022-08-19T09:19:03;23.80;99.90
16515;DHT22;8370;52.556;7.970;2022-08-19T09:21:29;23.80;99.90
16515;DHT22;8370;52.556;7.970;2022-08-19T09:23:55;23.60;99.90
16515;DHT22;8370;52.556;7.970;2022-08-19T09:26:23;23.60;99.90
16515;DHT22;8370;52.556;7.970;2022-08-19T09:28:50;23.50;99.90
16515;DHT22;8370;52.556;7.970;2022-08-19T09:31:20;23.60;99.90
16515;DHT22;8370;52.556;7.970;2022-08-19T09:33:47;23.60;99.90
16515;DHT22;8370;52.556;7.970;2022-08-19T09:36:20;23.70;99.90
16515;DHT22;8370;52.556;7.970;2022-08-19T09:38:47;23.80;99.90
16515;DHT22;8370;52.556;7.970;2022-08-19T09:41:16;23.90;99.90
16515;DHT22;8370;52.556;7.970;2022-08-19T09:43:45;24.00;99.90
16515;DHT22;8370;52.556;7.970;2022-08-19T09:46:11;24.10;99.90
16515;DHT22;8370;52.556;7.970;2022-08-19T09:48:38;24.20;99.90
16515;DHT22;8370;52.556;7.970;2022-08-19T09:51:06;24.40;99.90
16515;DHT22;8370;52.556;7.970;2022-08-19T09:53:34;24.60;99.90
16515;DHT22;8370;52.556;7.970;2022-08-19T09:55:59;24.80;99.90
16515;DHT22;8370;52.556;7.970;2022-08-19T09:58:25;24.90;99.90
16515;DHT22;8370;52.556;7.970;2022-08-19T10:00:54;25.00;99.90
16515;DHT22;8370;52.556;7.970;2022-08-19T10:03:19;25.10;99.90
16515;DHT22;8370;52.556;7.970;2022-08-19T10:05:45;25.10;99.90
16515;DHT22;8370;52.556;7.970;2022-08-19T10:08:18;25.10;99.90
16515;DHT22;8370;52.556;7.970;2022-08-19T10:10:44;25.10;99.90
16515;DHT22;8370;52.556;7.970;2022-08-19T10:13:11;25.10;99.90
16515;DHT22;8370;52.556;7.970;2022-08-19T10:15:37;25.20;99.90
16515;DHT22;8370;52.556;7.970;2022-08-19T10:18:06;25.20;99.90
16515;DHT22;8370;52.556;7.970;2022-08-19T10:20:31;25.20;99.90
16515;DHT22;8370;52.556;7.970;2022-08-19T10:22:57;25.20;99.90
16515;DHT22;8370;52.556;7.970;2022-08-19T10:25:24;25.10;99.90
16515;DHT22;8370;52.556;7.970;2022-08-19T10:27:52;25.10;99.90
16515;DHT22;8370;52.556;7.970;2022-08-19T10:30:17;25.10;99.90
16515;DHT22;8370;52.556;7.970;2022-08-19T10:32:44;25.10;99.90
16515;DHT22;8370;52.556;7.970;2022-08-19T10:35:11;25.20;99.90
16515;DHT22;8370;52.556;7.970;2022-08-19T10:37:38;25.30;99.90
16515;DHT22;8370;52.556;7.970;2022-08-19T10:40:06;25.40;99.90
16515;DHT22;8370;52.556;7.970;2022-08-19T10:42:32;25.50;99.90
16515;DHT22;8370;52.556;7.970;2022-08-19T10:44:57;25.70;99.90
16515;DHT22;8370;52.556;7.970;2022-08-19T10:47:23;25.80;99.90
16515;DHT22;8370;52.556;7.970;2022-08-19T10:49:49;26.00;99.90
16515;DHT22;8370;52.556;7.970;2022-08-19T10:52:33;26.30;99.90
16515;DHT22;8370;52.556;7.970;2022-08-19T10:55:00;26.40;99.90
16515;DHT22;8370;52.556;7.970;2022-08-19T10:57:44;26.60;99.90
16515;DHT22;8370;52.556;7.970;2022-08-19T11:00:10;26.80;99.90
16515;DHT22;8370;52.556;7.970;2022-08-19T11:02:35;27.10;99.90
16515;DHT22;8370;52.556;7.970;2022-08-19T11:05:01;27.30;99.90
16515;DHT22;8370;52.556;7.970;2022-08-19T11:07:26;27.40;99.90
16515;DHT22;8370;52.556;7.970;2022-08-19T11:09:52;27.50;99.90
16515;DHT22;8370;52.556;7.970;2022-08-19T11:12:17;27.50;99.90
16515;DHT22;8370;52.556;7.970;2022-08-19T11:14:44;27.60;99.90
16515;DHT22;8370;52.556;7.970;2022-08-19T11:17:10;27.80;99.90
16515;DHT22;8370;52.556;7.970;2022-08-19T11:19:38;28.00;99.90
16515;DHT22;8370;52.556;7.970;2022-08-19T11:22:07;28.10;99.90
16515;DHT22;8370;52.556;7.970;2022-08-19T11:24:35;28.10;99.90
16515;DHT22;8370;52.556;7.970;2022-08-19T11:27:07;28.10;99.90
16515;DHT22;8370;52.556;7.970;2022-08-19T11:29:34;27.90;99.90
16515;DHT22;8370;52.556;7.970;2022-08-19T11:32:04;27.80;99.90
16515;DHT22;8370;52.556;7.970;2022-08-19T11:34:30;27.90;99.90
16515;DHT22;8370;52.556;7.970;2022-08-19T11:36:56;28.20;99.90
16515;DHT22;8370;52.556;7.970;2022-08-19T11:39:27;28.30;99.90
16515;DHT22;8370;52.556;7.970;2022-08-19T11:41:52;28.20;99.90
16515;DHT22;8370;52.556;7.970;2022-08-19T11:44:18;28.20;99.90
16515;DHT22;8370;52.556;7.970;2022-08-19T11:46:44;28.10;99.90
16515;DHT22;8370;52.556;7.970;2022-08-19T11:49:12;28.50;99.90
16515;DHT22;8370;52.556;7.970;2022-08-19T11:51:38;30.40;99.90
16515;DHT22;8370;52.556;7.970;2022-08-19T11:54:05;31.30;99.90
16515;DHT22;8370;52.556;7.970;2022-08-19T11:56:30;31.60;99.90
16515;DHT22;8370;52.556;7.970;2022-08-19T11:58:56;33.00;99.90
16515;DHT22;8370;52.556;7.970;2022-08-19T12:01:23;35.00;99.90
16515;DHT22;8370;52.556;7.970;2022-08-19T12:03:51;35.70;99.90
16515;DHT22;8370;52.556;7.970;2022-08-19T12:06:24;35.30;99.80
16515;DHT22;8370;52.556;7.970;2022-08-19T12:08:52;34.90;99.90
16515;DHT22;8370;52.556;7.970;2022-08-19T12:11:19;34.50;99.00
16515;DHT22;8370;52.556;7.970;2022-08-19T12:13:45;33.60;99.00
16515;DHT22;8370;52.556;7.970;2022-08-19T12:16:17;32.60;99.50
16515;DHT22;8370;52.556;7.970;2022-08-19T12:18:44;31.70;99.90
16515;DHT22;8370;52.556;7.970;2022-08-19T12:21:15;31.10;99.90
16515;DHT22;8370;52.556;7.970;2022-08-19T12:23:42;31.60;99.90
16515;DHT22;8370;52.556;7.970;2022-08-19T12:26:09;31.60;99.90
16515;DHT22;8370;52.556;7.970;2022-08-19T12:28:36;32.00;99.90
16515;DHT22;8370;52.556;7.970;2022-08-19T12:31:01;31.70;99.90
16515;DHT22;8370;52.556;7.970;2022-08-19T12:33:27;31.00;99.90
16515;DHT22;8370;52.556;7.970;2022-08-19T12:35:54;30.40;99.90
16515;DHT22;8370;52.556;7.970;2022-08-19T12:38:20;29.70;99.90
16515;DHT22;8370;52.556;7.970;2022-08-19T12:40:48;29.20;99.90
16515;DHT22;8370;52.556;7.970;2022-08-19T12:43:16;28.70;99.90
16515;DHT22;8370;52.556;7.970;2022-08-19T12:45:42;28.20;99.90
16515;DHT22;8370;52.556;7.970;2022-08-19T12:48:09;27.90;99.90
16515;DHT22;8370;52.556;7.970;2022-08-19T12:50:34;27.60;99.90
16515;DHT22;8370;52.556;7.970;2022-08-19T12:53:00;27.50;99.90
16515;DHT22;8370;52.556;7.970;2022-08-19T12:55:25;27.80;99.90
16515;DHT22;8370;52.556;7.970;2022-08-19T12:57:53;28.40;99.90
16515;DHT22;8370;52.556;7.970;2022-08-19T13:00:20;28.90;99.90
16515;DHT22;8370;52.556;7.970;2022-08-19T13:02:48;29.40;99.90
16515;DHT22;8370;52.556;7.970;2022-08-19T13:05:27;29.90;99.90
16515;DHT22;8370;52.556;7.970;2022-08-19T13:07:54;30.30;99.90
16515;DHT22;8370;52.556;7.970;2022-08-19T13:10:22;30.50;99.60
16515;DHT22;8370;52.556;7.970;2022-08-19T13:12:49;30.40;99.60
16515;DHT22;8370;52.556;7.970;2022-08-19T13:15:16;30.30;99.00
16515;DHT22;8370;52.556;7.970;2022-08-19T13:17:49;30.30;99.70
16515;DHT22;8370;52.556;7.970;2022-08-19T13:20:17;30.40;98.30
16515;DHT22;8370;52.556;7.970;2022-08-19T13:22:43;30.60;98.10
16515;DHT22;8370;52.556;7.970;2022-08-19T13:25:10;30.80;96.50
16515;DHT22;8370;52.556;7.970;2022-08-19T13:27:36;31.00;95.60
16515;DHT22;8370;52.556;7.970;2022-08-19T13:30:04;31.00;96.40
16515;DHT22;8370;52.556;7.970;2022-08-19T13:32:48;30.70;97.50
16515;DHT22;8370;52.556;7.970;2022-08-19T13:35:32;30.20;98.70
16515;DHT22;8370;52.556;7.970;2022-08-19T13:37:57;29.70;98.10
16515;DHT22;8370;52.556;7.970;2022-08-19T13:40:24;29.40;99.20
16515;DHT22;8370;52.556;7.970;2022-08-19T13:42:53;29.00;99.90
16515;DHT22;8370;52.556;7.970;2022-08-19T13:45:22;28.70;99.90
16515;DHT22;8370;52.556;7.970;2022-08-19T13:47:49;28.40;99.90
16515;DHT22;8370;52.556;7.970;2022-08-19T13:50:18;28.40;99.90
16515;DHT22;8370;52.556;7.970;2022-08-19T13:52:46;28.70;99.90
16515;DHT22;8370;52.556;7.970;2022-08-19T13:55:13;28.80;99.90
16515;DHT22;8370;52.556;7.970;2022-08-19T13:57:39;28.70;99.90
16515;DHT22;8370;52.556;7.970;2022-08-19T14:00:08;28.60;99.90
16515;DHT22;8370;52.556;7.970;2022-08-19T14:02:36;28.50;99.90
16515;DHT22;8370;52.556;7.970;2022-08-19T14:05:03;28.60;99.90
16515;DHT22;8370;52.556;7.970;2022-08-19T14:07:29;28.70;99.90
16515;DHT22;8370;52.556;7.970;2022-08-19T14:09:55;28.80;99.90
16515;DHT22;8370;52.556;7.970;2022-08-19T14:12:21;28.90;99.90
16515;DHT22;8370;52.556;7.970;2022-08-19T14:14:46;28.90;99.30
16515;DHT22;8370;52.556;7.970;2022-08-19T14:17:12;28.90;98.90
16515;DHT22;8370;52.556;7.970;2022-08-19T14:19:38;28.70;98.90
16515;DHT22;8370;52.556;7.970;2022-08-19T14:22:03;28.40;99.20
16515;DHT22;8370;52.556;7.970;2022-08-19T14:24:30;28.10;99.90
16515;DHT22;8370;52.556;7.970;2022-08-19T14:26:57;28.00;99.90
16515;DHT22;8370;52.556;7.970;2022-08-19T14:29:23;27.90;99.90
16515;DHT22;8370;52.556;7.970;2022-08-19T14:31:48;27.80;99.90
16515;DHT22;8370;52.556;7.970;2022-08-19T14:34:14;27.60;99.90
16515;DHT22;8370;52.556;7.970;2022-08-19T14:36:39;27.50;99.90
16515;DHT22;8370;52.556;7.970;2022-08-19T14:39:07;27.40;99.90
16515;DHT22;8370;52.556;7.970;2022-08-19T14:41:34;27.30;99.90
16515;DHT22;8370;52.556;7.970;2022-08-19T14:44:00;27.20;99.90
16515;DHT22;8370;52.556;7.970;2022-08-19T14:46:28;27.20;99.90
16515;DHT22;8370;52.556;7.970;2022-08-19T14:48:54;27.20;99.90
16515;DHT22;8370;52.556;7.970;2022-08-19T14:51:22;27.10;99.90
16515;DHT22;8370;52.556;7.970;2022-08-19T14:53:49;27.10;99.90
16515;DHT22;8370;52.556;7.970;2022-08-19T14:56:17;27.10;99.90
16515;DHT22;8370;52.556;7.970;2022-08-19T14:58:43;27.20;99.90
16515;DHT22;8370;52.556;7.970;2022-08-19T15:01:10;27.20;99.90
16515;DHT22;8370;52.556;7.970;2022-08-19T15:03:37;27.20;99.90
16515;DHT22;8370;52.556;7.970;2022-08-19T15:06:04;27.20;99.90
16515;DHT22;8370;52.556;7.970;2022-08-19T15:08:32;27.10;99.90
16515;DHT22;8370;52.556;7.970;2022-08-19T15:11:00;27.00;99.90
16515;DHT22;8370;52.556;7.970;2022-08-19T15:13:26;26.90;99.90
16515;DHT22;8370;52.556;7.970;2022-08-19T15:15:53;26.80;99.90
16515;DHT22;8370;52.556;7.970;2022-08-19T15:18:19;26.70;99.90
16515;DHT22;8370;52.556;7.970;2022-08-19T15:20:46;26.70;99.90
16515;DHT22;8370;52.556;7.970;2022-08-19T15:23:12;26.60;99.90
16515;DHT22;8370;52.556;7.970;2022-08-19T15:25:38;26.60;99.90
16515;DHT22;8370;52.556;7.970;2022-08-19T15:28:03;26.60;99.90
16515;DHT22;8370;52.556;7.970;2022-08-19T15:30:29;26.70;99.90
16515;DHT22;8370;52.556;7.970;2022-08-19T15:32:56;26.70;99.90
16515;DHT22;8370;52.556;7.970;2022-08-19T15:35:23;26.70;99.90
16515;DHT22;8370;52.556;7.970;2022-08-19T15:37:50;26.60;99.90
16515;DHT22;8370;52.556;7.970;2022-08-19T15:40:16;26.50;99.90
16515;DHT22;8370;52.556;7.970;2022-08-19T15:42:42;26.50;99.90
16515;DHT22;8370;52.556;7.970;2022-08-19T15:45:10;26.40;99.90
16515;DHT22;8370;52.556;7.970;2022-08-19T15:47:36;26.30;99.90
16515;DHT22;8370;52.556;7.970;2022-08-19T15:50:15;26.20;99.90
16515;DHT22;8370;52.556;7.970;2022-08-19T15:52:50;26.10;99.90
16515;DHT22;8370;52.556;7.970;2022-08-19T15:55:21;26.10;99.90
16515;DHT22;8370;52.556;7.970;2022-08-19T15:57:47;26.00;99.90
16515;DHT22;8370;52.556;7.970;2022-08-19T16:00:31;25.90;99.90